Time;durP1;ratioP1;P1;durP2;ratioP2;P2;SDS_P1;SDS_P2;PMS_P1;PMS_P2;Temp;Humidity;BMP_temperature;BMP_pressure;BME280_temperature;BME280_humidity;BME280_pressure;Samples;Min_cycle;Max_cycle;Signal;HPM_P1;HPM_P2
2022/01/02 00:00:17;;;;;;;12.23;5.60;;;11.50;99.90;;;;;;4995109;28;20038;-70
2022/01/02 00:02:49;;;;;;;14.50;6.25;;;11.50;99.90;;;;;;4995290;28;20088;-70
2022/01/02 00:05:19;;;;;;;13.77;5.85;;;11.50;99.90;;;;;;4995164;28;20125;-70
2022/01/02 00:08:01;;;;;;;8.75;6.10;;;11.50;99.90;;;;;;4979091;28;20145;-70
2022/01/02 00:10:29;;;;;;;8.80;5.45;;;11.50;99.90;;;;;;4995068;28;20060;-70
2022/01/02 00:12:58;;;;;;;10.55;5.32;;;11.40;99.90;;;;;;4994968;28;20099;-70
2022/01/02 00:15:24;;;;;;;9.73;5.85;;;11.40;99.90;;;;;;4994647;28;20129;-71
2022/01/02 00:17:52;;;;;;;8.20;5.75;;;11.50;99.90;;;;;;4978663;28;20046;-70
2022/01/02 00:20:31;;;;;;;15.23;6.57;;;11.50;99.90;;;;;;4983345;28;20051;-70
2022/01/02 00:23:05;;;;;;;12.40;7.17;;;11.40;99.90;;;;;;4969952;28;20051;-70
2022/01/02 00:25:35;;;;;;;12.32;6.65;;;11.40;99.90;;;;;;4971990;28;20479;-70
2022/01/02 00:28:01;;;;;;;11.73;6.28;;;11.40;99.90;;;;;;4956261;28;20098;-71
2022/01/02 00:30:27;;;;;;;12.50;7.00;;;11.40;99.90;;;;;;4971958;28;20129;-70
2022/01/02 00:32:54;;;;;;;11.82;6.22;;;11.40;99.90;;;;;;4971992;28;20050;-70
2022/01/02 00:35:21;;;;;;;14.02;6.88;;;11.30;99.90;;;;;;4971867;28;20049;-70
2022/01/02 00:37:47;;;;;;;12.18;6.70;;;11.40;99.90;;;;;;4971879;28;20042;-70
2022/01/02 00:40:15;;;;;;;13.43;5.20;;;11.40;99.90;;;;;;4972073;28;20047;-70
2022/01/02 00:42:42;;;;;;;11.80;6.55;;;11.30;99.90;;;;;;4988071;28;20046;-71
2022/01/02 00:45:27;;;;;;;12.75;6.70;;;11.40;99.90;;;;;;4971796;28;20074;-71
2022/01/02 00:47:59;;;;;;;13.02;7.00;;;11.40;99.90;;;;;;4971760;28;20560;-70
2022/01/02 00:50:42;;;;;;;11.43;7.28;;;11.40;99.90;;;;;;5004300;28;20116;-70
2022/01/02 00:53:10;;;;;;;14.20;5.07;;;11.40;99.90;;;;;;4969131;28;20045;-71
2022/01/02 00:55:37;;;;;;;17.17;7.13;;;11.40;99.90;;;;;;4971204;28;20086;-71
2022/01/02 00:58:09;;;;;;;13.85;7.60;;;11.40;99.90;;;;;;4971817;28;20058;-71
2022/01/02 01:00:35;;;;;;;11.00;7.32;;;11.40;99.90;;;;;;4971785;28;20031;-72
2022/01/02 01:03:08;;;;;;;11.48;6.93;;;11.40;99.90;;;;;;4971748;28;20475;-72
2022/01/02 01:05:35;;;;;;;14.60;6.80;;;11.40;99.90;;;;;;5003810;28;20078;-71
2022/01/02 01:08:08;;;;;;;12.27;7.78;;;11.30;99.90;;;;;;4987826;28;20051;-72
2022/01/02 01:10:38;;;;;;;14.68;7.72;;;11.30;99.90;;;;;;4971620;28;20057;-73
2022/01/02 01:13:07;;;;;;;12.52;7.78;;;11.30;99.90;;;;;;4971664;28;20049;-72
2022/01/02 01:15:34;;;;;;;15.38;7.55;;;11.30;99.90;;;;;;5003657;28;20081;-72
2022/01/02 01:18:02;;;;;;;15.27;8.65;;;11.30;99.90;;;;;;4971314;28;20054;-72
2022/01/02 01:20:37;;;;;;;16.10;9.00;;;11.20;99.90;;;;;;4987645;28;20055;-72
2022/01/02 01:23:03;;;;;;;16.77;8.45;;;11.30;99.90;;;;;;5001460;28;20043;-72
2022/01/02 01:25:29;;;;;;;16.60;8.20;;;11.30;99.90;;;;;;4955125;28;20521;-71
2022/01/02 01:27:55;;;;;;;14.48;8.23;;;11.20;99.90;;;;;;4971028;28;20479;-71
2022/01/02 01:30:26;;;;;;;16.48;7.80;;;11.30;99.90;;;;;;4955016;28;20066;-71
2022/01/02 01:32:53;;;;;;;17.00;6.80;;;11.30;99.90;;;;;;4965499;28;20126;-71
2022/01/02 01:35:20;;;;;;;16.20;7.80;;;11.30;99.90;;;;;;4951753;28;20043;-71
2022/01/02 01:37:47;;;;;;;12.05;8.18;;;11.20;99.90;;;;;;4951772;28;20113;-71
2022/01/02 01:40:14;;;;;;;14.18;8.05;;;11.30;99.90;;;;;;4951676;29;20069;-72
2022/01/02 01:42:44;;;;;;;13.98;7.18;;;11.20;99.90;;;;;;4951611;29;20122;-70
2022/01/02 01:47:51;;;;;;;14.50;8.68;;;11.30;99.90;;;;;;4951673;29;20142;-71
2022/01/02 01:50:18;;;;;;;13.82;6.85;;;11.30;99.90;;;;;;4935643;29;20475;-71
2022/01/02 01:52:44;;;;;;;14.73;7.57;;;11.20;99.90;;;;;;4933457;29;20047;-71
2022/01/02 01:55:11;;;;;;;10.93;6.15;;;11.30;99.90;;;;;;4951464;29;20043;-72
2022/01/02 01:57:39;;;;;;;17.23;8.57;;;11.30;99.90;;;;;;4935695;28;20039;-71
2022/01/02 02:00:10;;;;;;;11.55;7.28;;;11.30;99.90;;;;;;4951728;28;20437;-71
2022/01/02 02:02:36;;;;;;;18.02;8.20;;;11.20;99.90;;;;;;4935298;29;20043;-71
2022/01/02 02:05:03;;;;;;;16.58;7.07;;;11.30;99.90;;;;;;4935211;29;20055;-70
2022/01/02 02:07:37;;;;;;;14.05;7.88;;;11.20;99.90;;;;;;4951187;28;20084;-72
2022/01/02 02:10:12;;;;;;;14.45;8.43;;;11.30;99.90;;;;;;4951532;29;20050;-71
2022/01/02 02:12:40;;;;;;;13.15;7.63;;;11.30;99.90;;;;;;4935508;28;20177;-71
2022/01/02 02:15:07;;;;;;;14.02;7.90;;;11.20;99.90;;;;;;4951127;28;20129;-71
2022/01/02 02:17:33;;;;;;;14.68;6.72;;;11.20;99.90;;;;;;4951060;28;20054;-73
2022/01/02 02:20:12;;;;;;;16.33;7.60;;;11.30;99.90;;;;;;4956839;28;20360;-72
2022/01/02 02:22:41;;;;;;;14.40;6.65;;;11.30;99.90;;;;;;5000644;28;20047;-72
2022/01/02 02:25:07;;;;;;;16.25;7.78;;;11.20;99.90;;;;;;5003078;28;20046;-71
2022/01/02 02:27:33;;;;;;;13.30;7.00;;;11.20;99.90;;;;;;4986271;28;20051;-71
2022/01/02 02:29:59;;;;;;;16.42;8.65;;;11.20;99.90;;;;;;4986411;28;20050;-71
2022/01/02 02:32:25;;;;;;;17.55;8.75;;;11.20;99.90;;;;;;4971764;28;20047;-71
2022/01/02 02:34:51;;;;;;;17.50;8.80;;;11.20;99.90;;;;;;5005892;28;20050;-71
2022/01/02 02:37:17;;;;;;;12.93;7.60;;;11.20;99.90;;;;;;4973364;28;20474;-72
2022/01/02 02:39:43;;;;;;;14.13;8.05;;;11.20;99.90;;;;;;4989485;28;20620;-72
2022/01/02 02:42:25;;;;;;;13.70;7.50;;;11.20;99.90;;;;;;4989313;28;20042;-73
2022/01/02 02:44:58;;;;;;;19.05;8.82;;;11.20;99.90;;;;;;4989640;28;20038;-72
2022/01/02 02:50:09;;;;;;;14.93;7.93;;;11.20;99.90;;;;;;4989644;28;20156;-72
2022/01/02 02:52:45;;;;;;;20.77;8.57;;;11.20;99.90;;;;;;4987209;28;20133;-72
2022/01/02 02:55:32;;;;;;;13.55;7.70;;;11.20;99.90;;;;;;5000114;28;20065;-72
2022/01/02 02:58:08;;;;;;;18.05;7.57;;;11.20;99.90;;;;;;4989267;28;20092;-73
2022/01/02 03:00:34;;;;;;;15.70;6.78;;;11.20;99.90;;;;;;4989556;28;20046;-74
2022/01/02 03:03:00;;;;;;;12.48;7.65;;;11.20;99.90;;;;;;4989196;28;20145;-72
2022/01/02 03:05:26;;;;;;;14.90;8.00;;;11.20;99.90;;;;;;4989167;28;20047;-73
2022/01/02 03:07:53;;;;;;;19.65;7.68;;;11.30;99.90;;;;;;5005490;28;20133;-72
2022/01/02 03:10:19;;;;;;;13.25;7.53;;;11.30;99.90;;;;;;4989433;28;20134;-72
2022/01/02 03:12:44;;;;;;;15.55;6.93;;;11.30;99.90;;;;;;4989230;28;20461;-73
2022/01/02 03:15:10;;;;;;;16.98;8.80;;;11.30;99.90;;;;;;4989129;28;20532;-72
2022/01/02 03:17:36;;;;;;;16.90;8.73;;;11.30;99.90;;;;;;5007336;28;20039;-73
2022/01/02 03:20:02;;;;;;;17.83;6.95;;;11.30;99.90;;;;;;4986697;28;20590;-73
2022/01/02 03:22:28;;;;;;;16.13;7.13;;;11.30;99.90;;;;;;4970875;28;20047;-73
2022/01/02 03:24:54;;;;;;;13.93;6.75;;;11.30;99.90;;;;;;4973189;28;20058;-73
2022/01/02 03:27:20;;;;;;;11.73;6.63;;;11.30;99.90;;;;;;4973169;28;20043;-72
2022/01/02 03:29:46;;;;;;;17.60;8.65;;;11.30;99.90;;;;;;4973199;28;20438;-72
2022/01/02 03:32:12;;;;;;;10.68;5.57;;;11.30;99.90;;;;;;4973028;28;20514;-73
2022/01/02 03:34:38;;;;;;;16.27;7.80;;;11.30;99.90;;;;;;4953472;29;20047;-72
2022/01/02 03:37:03;;;;;;;17.17;7.00;;;11.30;99.90;;;;;;4937892;29;20101;-72
2022/01/02 03:39:29;;;;;;;16.30;7.78;;;11.40;99.90;;;;;;4953488;29;20360;-72
2022/01/02 03:41:56;;;;;;;16.50;6.60;;;11.40;99.90;;;;;;4953396;29;20140;-72
2022/01/02 03:44:22;;;;;;;16.27;7.53;;;11.30;99.90;;;;;;4937412;28;20047;-72
2022/01/02 03:46:48;;;;;;;17.02;6.28;;;11.40;99.90;;;;;;4937474;28;20124;-73
2022/01/02 03:49:13;;;;;;;16.40;8.15;;;11.40;99.90;;;;;;4953302;29;20051;-72
2022/01/02 03:51:39;;;;;;;14.77;6.97;;;11.40;99.90;;;;;;4935461;29;20047;-73
2022/01/02 03:54:05;;;;;;;17.88;8.30;;;11.40;99.90;;;;;;4953222;29;20373;-72
2022/01/02 03:56:31;;;;;;;16.85;6.80;;;11.40;99.90;;;;;;4953481;29;20051;-73
2022/01/02 03:58:56;;;;;;;15.20;7.13;;;11.30;99.90;;;;;;4937555;29;20488;-74
2022/01/02 04:01:22;;;;;;;15.50;6.40;;;11.40;99.90;;;;;;4953195;28;20480;-74
2022/01/02 04:03:48;;;;;;;16.85;7.82;;;11.40;99.90;;;;;;4937176;29;20047;-74
2022/01/02 04:06:14;;;;;;;18.30;7.97;;;11.40;99.90;;;;;;4953221;29;20124;-74
2022/01/02 04:08:39;;;;;;;16.23;7.32;;;11.40;99.90;;;;;;4952920;29;20515;-74
2022/01/02 04:11:05;;;;;;;14.98;7.70;;;11.40;99.90;;;;;;4952928;29;20101;-74
2022/01/02 04:13:31;;;;;;;12.30;5.82;;;11.40;99.90;;;;;;4952709;29;20050;-74
2022/01/02 04:15:57;;;;;;;19.42;8.13;;;11.40;99.90;;;;;;4952833;28;20043;-74
2022/01/02 04:18:23;;;;;;;12.25;5.47;;;11.40;99.90;;;;;;4952686;29;20043;-73
2022/01/02 04:20:49;;;;;;;15.93;7.05;;;11.40;99.90;;;;;;4947102;28;20059;-73
2022/01/02 04:23:15;;;;;;;16.25;6.60;;;11.40;99.90;;;;;;4950857;29;20105;-73
2022/01/02 04:25:40;;;;;;;17.85;7.25;;;11.40;99.90;;;;;;4953001;29;20391;-73
2022/01/02 04:28:06;;;;;;;18.17;7.13;;;11.50;99.90;;;;;;4951789;28;20054;-73
2022/01/02 04:30:32;;;;;;;17.30;6.00;;;11.40;99.90;;;;;;4952199;29;20047;-73
2022/01/02 04:32:58;;;;;;;14.30;6.93;;;11.40;99.90;;;;;;4958774;28;20046;-72
2022/01/02 04:35:25;;;;;;;14.15;5.93;;;11.50;99.90;;;;;;4971638;28;20051;-73
2022/01/02 04:37:51;;;;;;;15.90;6.78;;;11.50;99.90;;;;;;4972052;28;20043;-74
2022/01/02 04:40:17;;;;;;;13.85;6.15;;;11.50;99.90;;;;;;4971761;28;20514;-73
2022/01/02 04:42:43;;;;;;;14.32;6.30;;;11.50;99.90;;;;;;4971999;28;20056;-74
2022/01/02 04:45:09;;;;;;;11.63;5.93;;;11.50;99.90;;;;;;4971827;28;20047;-74
2022/01/02 04:47:35;;;;;;;12.18;5.88;;;11.60;99.90;;;;;;4971535;28;20157;-74
2022/01/02 04:50:00;;;;;;;13.52;5.38;;;11.60;99.90;;;;;;4971560;28;20125;-74
2022/01/02 04:52:26;;;;;;;14.23;5.72;;;11.60;99.90;;;;;;4969346;28;20046;-74
2022/01/02 04:54:52;;;;;;;14.93;5.95;;;11.60;99.90;;;;;;4971365;28;20051;-74
2022/01/02 04:57:18;;;;;;;12.48;4.57;;;11.70;99.90;;;;;;4971671;28;20042;-74
2022/01/02 04:59:44;;;;;;;14.73;5.13;;;11.70;99.90;;;;;;4971639;28;20365;-72
2022/01/02 05:02:09;;;;;;;14.85;5.38;;;11.80;99.90;;;;;;4955622;28;20100;-73
2022/01/02 05:04:35;;;;;;;16.63;4.93;;;11.80;99.90;;;;;;4971293;28;20058;-74
2022/01/02 05:07:01;;;;;;;13.23;4.35;;;11.80;99.90;;;;;;4971563;28;20062;-74
2022/01/02 05:09:28;;;;;;;11.27;4.75;;;11.90;99.90;;;;;;4971287;28;20082;-73
2022/01/02 05:11:53;;;;;;;10.68;4.25;;;11.90;99.90;;;;;;4971185;28;20077;-73
2022/01/02 05:14:19;;;;;;;13.73;4.30;;;11.90;99.90;;;;;;4970920;28;20042;-73
2022/01/02 05:16:45;;;;;;;12.82;4.45;;;11.90;99.90;;;;;;4971156;28;20077;-74
2022/01/02 05:19:11;;;;;;;14.80;4.63;;;11.90;99.90;;;;;;4971453;28;20086;-74
2022/01/02 05:21:38;;;;;;;11.05;4.32;;;11.90;99.90;;;;;;4969640;28;20116;-73
2022/01/02 05:24:04;;;;;;;16.75;4.32;;;11.90;99.90;;;;;;4970720;28;20497;-73
2022/01/02 05:26:29;;;;;;;11.85;4.57;;;11.90;99.90;;;;;;4971397;28;20133;-74
2022/01/02 05:28:55;;;;;;;14.48;5.00;;;11.90;99.90;;;;;;4971025;28;20486;-73
2022/01/02 05:31:21;;;;;;;13.25;4.35;;;11.90;99.90;;;;;;4971239;28;20076;-73
2022/01/02 05:33:48;;;;;;;11.52;4.32;;;11.90;99.90;;;;;;4971008;28;20039;-73
2022/01/02 05:36:14;;;;;;;12.18;4.40;;;11.90;99.90;;;;;;4954868;28;20050;-73
2022/01/02 05:38:40;;;;;;;12.80;4.80;;;11.90;99.90;;;;;;4970888;28;20039;-73
2022/01/02 05:41:07;;;;;;;13.40;4.53;;;11.90;99.90;;;;;;4986956;28;20038;-73
2022/01/02 05:43:33;;;;;;;11.00;4.25;;;11.90;99.90;;;;;;4986797;28;20049;-73
2022/01/02 05:46:03;;;;;;;15.27;4.28;;;11.90;99.90;;;;;;4954835;28;20047;-73
2022/01/02 05:48:30;;;;;;;14.15;3.85;;;11.90;99.90;;;;;;4970775;28;20039;-72
2022/01/02 05:50:56;;;;;;;11.90;4.30;;;11.90;99.90;;;;;;4954590;28;20043;-72
2022/01/02 05:53:22;;;;;;;13.38;5.25;;;11.90;99.90;;;;;;4968655;28;20047;-72
2022/01/02 05:55:47;;;;;;;11.05;4.18;;;11.90;99.90;;;;;;4970529;28;20059;-72
2022/01/02 05:58:13;;;;;;;11.30;4.60;;;11.90;99.90;;;;;;5003130;28;20038;-72
2022/01/02 06:00:39;;;;;;;7.63;3.78;;;11.90;99.90;;;;;;4970619;28;20129;-73
2022/01/02 06:03:05;;;;;;;13.85;4.68;;;11.90;99.90;;;;;;4970846;28;20047;-72
2022/01/02 06:05:30;;;;;;;13.13;4.40;;;11.90;99.90;;;;;;4970595;28;20133;-73
2022/01/02 06:07:56;;;;;;;10.35;3.53;;;11.90;99.90;;;;;;4970464;28;20047;-72
2022/01/02 06:10:22;;;;;;;8.77;3.33;;;11.90;99.90;;;;;;4970636;28;20051;-72
2022/01/02 06:12:48;;;;;;;9.18;4.07;;;12.00;99.90;;;;;;4970542;28;20549;-73
2022/01/02 06:15:14;;;;;;;11.18;3.50;;;12.00;99.90;;;;;;4954167;28;20047;-73
2022/01/02 06:17:40;;;;;;;9.80;3.80;;;12.00;99.90;;;;;;4970325;28;20122;-72
2022/01/02 06:20:06;;;;;;;9.32;2.78;;;12.00;99.90;;;;;;4954115;28;20063;-72
2022/01/02 06:22:32;;;;;;;11.30;4.28;;;12.10;99.90;;;;;;4952147;28;20046;-72
2022/01/02 06:24:57;;;;;;;9.90;2.80;;;12.10;99.90;;;;;;4970343;28;20062;-71
2022/01/02 06:27:24;;;;;;;9.68;3.00;;;12.10;99.90;;;;;;5002891;28;20495;-72
2022/01/02 06:29:50;;;;;;;6.90;2.85;;;12.10;99.90;;;;;;4970379;28;20111;-72
2022/01/02 06:32:15;;;;;;;7.07;3.25;;;12.10;99.90;;;;;;4969887;28;20464;-72
2022/01/02 06:34:44;;;;;;;11.02;3.78;;;12.10;99.90;;;;;;4950816;29;20508;-73
2022/01/02 06:37:10;;;;;;;9.93;3.60;;;12.10;99.90;;;;;;4950751;29;20054;-72
2022/01/02 06:39:35;;;;;;;9.07;2.70;;;12.10;99.90;;;;;;4950925;29;20043;-73
2022/01/02 06:42:01;;;;;;;13.23;5.03;;;12.20;99.90;;;;;;4966767;28;20471;-72
2022/01/02 06:44:27;;;;;;;6.97;2.25;;;12.20;99.90;;;;;;4950626;29;20177;-72
2022/01/02 06:46:53;;;;;;;9.18;3.55;;;12.20;99.90;;;;;;4950690;29;20051;-72
2022/01/02 06:49:18;;;;;;;12.90;4.15;;;12.10;99.90;;;;;;4967052;28;20051;-72
2022/01/02 06:51:44;;;;;;;8.65;3.63;;;12.20;99.90;;;;;;4947691;29;20051;-73
2022/01/02 06:54:10;;;;;;;6.40;3.38;;;12.20;99.90;;;;;;4934797;29;20047;-73
2022/01/02 06:56:36;;;;;;;9.15;4.00;;;12.10;99.90;;;;;;4950353;29;20106;-73
2022/01/02 06:59:03;;;;;;;10.27;4.07;;;12.20;99.90;;;;;;4966932;28;20051;-73
2022/01/02 07:01:29;;;;;;;6.63;3.20;;;12.10;99.90;;;;;;4934504;29;20085;-73
2022/01/02 07:03:54;;;;;;;11.32;2.80;;;12.20;99.90;;;;;;4950751;29;20078;-74
2022/01/02 07:06:20;;;;;;;7.00;3.50;;;12.10;99.90;;;;;;4950305;29;20044;-72
2022/01/02 07:08:46;;;;;;;10.10;3.03;;;12.20;99.90;;;;;;4966705;28;20044;-73
2022/01/02 07:11:12;;;;;;;11.25;3.92;;;12.20;99.90;;;;;;4934572;29;20660;-74
2022/01/02 07:13:40;;;;;;;5.32;2.20;;;12.20;99.90;;;;;;4950615;29;20105;-72
2022/01/02 07:16:05;;;;;;;10.50;3.20;;;12.20;99.90;;;;;;4950498;28;20113;-73
2022/01/02 07:18:31;;;;;;;12.77;3.75;;;12.20;99.90;;;;;;4950595;28;20472;-73
2022/01/02 07:20:57;;;;;;;7.88;3.22;;;12.10;99.90;;;;;;4961372;28;20506;-72
2022/01/02 07:23:24;;;;;;;10.02;3.50;;;12.10;99.90;;;;;;5000137;28;20042;-72
2022/01/02 07:25:50;;;;;;;9.55;3.42;;;12.10;99.90;;;;;;5001793;28;20057;-72
2022/01/02 07:28:16;;;;;;;5.35;2.80;;;12.00;99.90;;;;;;5002253;28;20050;-71
2022/01/02 07:30:42;;;;;;;11.63;3.90;;;12.00;99.90;;;;;;5002029;28;20399;-73
2022/01/02 07:33:08;;;;;;;10.43;4.07;;;12.00;99.90;;;;;;4993160;28;20050;-72
2022/01/02 07:35:33;;;;;;;7.22;3.50;;;11.90;99.90;;;;;;4988557;28;20061;-73
2022/01/02 07:37:59;;;;;;;9.38;3.55;;;11.90;99.90;;;;;;4989004;28;20048;-72
2022/01/02 07:40:25;;;;;;;9.15;3.75;;;11.90;99.90;;;;;;4988617;28;20076;-71
2022/01/02 07:42:53;;;;;;;9.73;3.35;;;11.90;99.90;;;;;;4988715;28;20046;-72
2022/01/02 07:45:19;;;;;;;6.15;3.70;;;11.90;99.90;;;;;;5021386;28;20038;-72
2022/01/02 07:47:46;;;;;;;10.55;4.63;;;11.90;99.90;;;;;;4988649;28;20398;-72
2022/01/02 07:50:15;;;;;;;9.27;4.63;;;11.90;99.90;;;;;;4988646;28;20082;-73
2022/01/02 07:52:40;;;;;;;9.32;3.55;;;11.90;99.90;;;;;;4986497;28;20100;-73
2022/01/02 07:55:06;;;;;;;8.23;3.03;;;11.90;99.90;;;;;;4988562;28;20042;-72
2022/01/02 07:57:32;;;;;;;7.95;3.80;;;11.90;99.90;;;;;;4988605;28;20038;-72
2022/01/02 07:59:58;;;;;;;10.05;4.30;;;11.90;99.90;;;;;;4988843;28;20042;-72
2022/01/02 08:02:24;;;;;;;11.02;3.90;;;11.90;99.90;;;;;;4988697;28;20402;-74
2022/01/02 08:04:51;;;;;;;10.38;3.88;;;11.90;99.90;;;;;;4991955;28;20065;-72
2022/01/02 08:07:17;;;;;;;10.57;3.45;;;11.90;99.90;;;;;;4991575;28;20050;-72
2022/01/02 08:09:43;;;;;;;8.20;4.13;;;11.80;99.90;;;;;;4991615;28;20054;-71
2022/01/02 08:12:08;;;;;;;8.75;4.53;;;11.80;99.90;;;;;;5008169;28;20042;-73
2022/01/02 08:14:34;;;;;;;12.02;5.43;;;11.70;99.90;;;;;;4991558;28;20528;-71
2022/01/02 08:17:00;;;;;;;11.45;3.97;;;11.70;99.90;;;;;;4991420;28;20042;-72
2022/01/02 08:19:26;;;;;;;11.57;4.20;;;11.70;99.90;;;;;;5008225;28;20049;-72
2022/01/02 08:21:52;;;;;;;10.65;4.05;;;11.70;99.90;;;;;;4986737;28;20070;-72
2022/01/02 08:24:17;;;;;;;10.48;4.18;;;11.70;99.90;;;;;;4972338;28;20046;-72
2022/01/02 08:26:43;;;;;;;9.52;4.35;;;11.70;99.90;;;;;;4972237;28;20466;-72
2022/01/02 08:29:09;;;;;;;7.53;3.85;;;11.70;99.90;;;;;;4972167;28;20560;-72
2022/01/02 08:31:35;;;;;;;8.73;4.40;;;11.70;99.90;;;;;;4955806;28;20047;-72
2022/01/02 08:34:01;;;;;;;10.18;3.97;;;11.70;99.90;;;;;;4957737;28;20047;-72
2022/01/02 08:36:27;;;;;;;9.00;3.65;;;11.70;99.90;;;;;;4952493;29;20046;-71
2022/01/02 08:38:53;;;;;;;7.43;3.58;;;11.70;99.90;;;;;;4952799;28;20078;-71
2022/01/02 08:41:22;;;;;;;10.70;4.60;;;11.70;99.90;;;;;;4969156;28;20457;-71
2022/01/02 08:43:47;;;;;;;7.93;3.25;;;11.70;99.90;;;;;;4952353;29;20039;-72
2022/01/02 08:46:13;;;;;;;6.90;3.65;;;11.70;99.90;;;;;;4952362;29;20055;-71
2022/01/02 08:48:41;;;;;;;8.55;3.90;;;11.70;99.90;;;;;;4952531;29;20104;-70
2022/01/02 08:51:07;;;;;;;8.32;4.05;;;11.60;99.90;;;;;;4952062;28;20046;-71
2022/01/02 08:53:34;;;;;;;9.60;4.47;;;11.60;99.90;;;;;;4950289;29;20044;-71
2022/01/02 08:56:00;;;;;;;9.73;4.13;;;11.60;99.90;;;;;;4952468;29;20396;-71
2022/01/02 08:58:26;;;;;;;6.72;3.92;;;11.60;99.90;;;;;;4952342;28;20039;-72
2022/01/02 09:00:53;;;;;;;11.95;4.68;;;11.60;99.90;;;;;;4952231;29;20047;-72
2022/01/02 09:03:19;;;;;;;9.02;4.47;;;11.60;99.90;;;;;;4952296;29;20043;-70
2022/01/02 09:05:45;;;;;;;9.85;4.57;;;11.60;99.90;;;;;;4952199;29;20051;-71
2022/01/02 09:08:10;;;;;;;9.98;4.25;;;11.60;99.90;;;;;;4968466;28;20049;-71
2022/01/02 09:10:36;;;;;;;8.18;4.10;;;11.60;99.90;;;;;;4952078;29;20491;-71
2022/01/02 09:13:02;;;;;;;13.63;4.15;;;11.60;99.90;;;;;;4984484;28;20047;-71
2022/01/02 09:15:30;;;;;;;8.52;4.25;;;11.70;99.90;;;;;;4951326;28;20105;-72
2022/01/02 09:17:56;;;;;;;6.78;3.63;;;11.70;99.90;;;;;;4951957;29;20043;-71
2022/01/02 09:20:22;;;;;;;8.10;3.53;;;11.70;99.90;;;;;;4958527;28;20055;-71
2022/01/02 09:22:48;;;;;;;7.63;4.22;;;11.70;99.90;;;;;;4968977;28;20096;-72
2022/01/02 09:25:14;;;;;;;8.98;4.43;;;11.80;99.90;;;;;;4971332;28;20065;-71
2022/01/02 09:27:41;;;;;;;8.07;4.53;;;11.80;99.90;;;;;;4971334;28;20587;-71
2022/01/02 09:30:11;;;;;;;8.23;4.60;;;11.90;99.90;;;;;;5003653;28;20491;-71
2022/01/02 09:32:37;;;;;;;9.50;4.95;;;11.90;99.90;;;;;;4974357;28;20030;-72
2022/01/02 09:35:07;;;;;;;7.85;4.60;;;12.00;99.90;;;;;;4990382;28;20047;-72
2022/01/02 09:37:34;;;;;;;10.32;4.20;;;12.00;99.90;;;;;;4990310;28;20076;-70
2022/01/02 09:40:03;;;;;;;6.97;4.93;;;12.10;99.90;;;;;;4990346;28;20043;-70
2022/01/02 09:42:29;;;;;;;9.93;4.65;;;12.10;99.90;;;;;;4990562;28;20432;-70
2022/01/02 09:44:57;;;;;;;10.23;4.93;;;12.10;99.90;;;;;;4990491;28;20046;-71
2022/01/02 09:47:23;;;;;;;9.05;5.00;;;12.10;99.90;;;;;;4990412;28;20042;-71
2022/01/02 09:49:49;;;;;;;10.00;4.95;;;12.20;99.90;;;;;;4973915;28;20121;-71
2022/01/02 09:52:16;;;;;;;10.27;5.05;;;12.20;99.90;;;;;;4988360;28;20050;-70
2022/01/02 09:54:43;;;;;;;10.00;4.28;;;12.20;99.90;;;;;;4990078;28;20509;-71
2022/01/02 09:57:11;;;;;;;11.80;4.60;;;12.20;99.90;;;;;;4990448;28;20044;-70
2022/01/02 09:59:37;;;;;;;11.63;4.13;;;12.20;99.90;;;;;;5006412;28;20550;-70
2022/01/02 10:02:03;;;;;;;9.60;4.75;;;12.20;99.90;;;;;;4989987;28;20050;-71
2022/01/02 10:04:41;;;;;;;14.05;4.65;;;12.30;99.90;;;;;;4984700;28;20042;-70
2022/01/02 10:07:26;;;;;;;7.95;4.35;;;12.20;99.90;;;;;;4989550;28;20045;-70
2022/01/02 10:09:52;;;;;;;8.25;4.53;;;12.20;99.90;;;;;;4990145;28;20050;-70
2022/01/02 10:12:31;;;;;;;12.13;5.00;;;12.20;99.90;;;;;;4989873;28;20042;-70
2022/01/02 10:15:22;;;;;;;12.68;5.38;;;12.20;99.90;;;;;;5022556;28;20056;-71
2022/01/02 10:18:08;;;;;;;7.70;4.15;;;12.20;99.90;;;;;;4990083;28;20065;-70
2022/01/02 10:20:39;;;;;;;12.30;5.13;;;12.20;99.90;;;;;;4981665;28;20385;-70
2022/01/02 10:23:16;;;;;;;11.20;5.00;;;12.20;99.90;;;;;;4968016;28;20122;-70
2022/01/02 10:26:08;;;;;;;9.50;4.50;;;12.20;99.90;;;;;;4970000;28;20047;-69
2022/01/02 10:28:41;;;;;;;7.40;4.75;;;12.20;99.90;;;;;;4970642;28;20047;-70
2022/01/02 10:31:18;;;;;;;9.27;4.50;;;12.20;99.90;;;;;;4970298;28;20403;-70
2022/01/02 10:33:56;;;;;;;9.25;5.13;;;12.20;99.90;;;;;;4969738;28;20518;-70
2022/01/02 10:36:34;;;;;;;9.30;5.25;;;12.20;99.90;;;;;;5002588;28;20043;-70
2022/01/02 10:39:01;;;;;;;9.43;4.88;;;12.20;99.90;;;;;;4953929;28;20047;-69
2022/01/02 10:41:53;;;;;;;6.03;4.18;;;12.20;99.90;;;;;;5002719;28;20047;-69
2022/01/02 10:44:30;;;;;;;5.75;3.88;;;12.20;99.90;;;;;;4951055;28;20665;-69
2022/01/02 10:47:18;;;;;;;10.52;5.05;;;12.20;99.90;;;;;;5002657;28;20129;-70
2022/01/02 10:50:02;;;;;;;6.78;4.20;;;12.20;99.90;;;;;;4969821;28;20054;-70
2022/01/02 10:52:37;;;;;;;9.60;4.93;;;12.30;99.90;;;;;;4967580;28;20043;-70
2022/01/02 10:55:13;;;;;;;10.65;4.55;;;12.30;99.90;;;;;;5002188;28;20533;-70
2022/01/02 10:57:42;;;;;;;10.98;5.30;;;12.30;99.90;;;;;;4969683;28;20038;-70
2022/01/02 11:00:10;;;;;;;12.85;5.75;;;12.30;99.90;;;;;;4970091;28;20447;-69
2022/01/02 11:02:38;;;;;;;12.98;5.43;;;12.20;99.90;;;;;;4970175;28;20125;-71
2022/01/02 11:05:12;;;;;;;9.55;5.38;;;12.20;99.90;;;;;;4969814;28;20627;-71
2022/01/02 11:07:43;;;;;;;11.63;4.97;;;12.20;99.90;;;;;;4969551;28;20050;-70
2022/01/02 11:10:15;;;;;;;9.32;4.85;;;12.20;99.90;;;;;;4969774;28;20101;-69
2022/01/02 11:12:42;;;;;;;9.85;4.93;;;12.20;99.90;;;;;;4969592;28;20050;-69
2022/01/02 11:15:10;;;;;;;11.07;4.82;;;12.20;99.90;;;;;;4953731;28;20043;-69
2022/01/02 11:17:37;;;;;;;7.75;4.63;;;12.20;99.90;;;;;;4969509;28;20039;-70
2022/01/02 11:20:12;;;;;;;11.40;4.50;;;12.20;99.90;;;;;;4969270;28;20059;-70
2022/01/02 11:23:16;;;;;;;9.57;4.50;;;12.20;99.90;;;;;;4951619;28;20082;-70
2022/01/02 11:26:03;;;;;;;9.60;3.92;;;12.20;99.90;;;;;;4969359;28;20062;-71
2022/01/02 11:28:39;;;;;;;9.85;3.78;;;12.20;99.90;;;;;;4969757;28;20129;-70
2022/01/02 11:31:08;;;;;;;11.52;3.78;;;12.20;99.90;;;;;;4969419;28;20046;-70
2022/01/02 11:33:43;;;;;;;12.70;4.78;;;12.10;99.90;;;;;;4953103;28;20126;-71
2022/01/02 11:36:31;;;;;;;9.55;3.45;;;12.10;99.90;;;;;;4969572;28;20043;-69
2022/01/02 11:38:57;;;;;;;14.27;4.35;;;12.10;99.90;;;;;;4955451;28;20471;-71
2022/01/02 11:41:43;;;;;;;8.02;3.38;;;12.10;99.90;;;;;;4972993;28;20053;-70
2022/01/02 11:44:10;;;;;;;11.82;3.50;;;12.00;99.90;;;;;;4972500;28;20535;-71
2022/01/02 11:46:47;;;;;;;11.23;3.25;;;12.00;99.90;;;;;;4972321;28;20082;-70
2022/01/02 11:49:17;;;;;;;13.70;3.45;;;11.90;99.90;;;;;;4972418;28;20039;-71
2022/01/02 11:51:53;;;;;;;12.55;3.45;;;11.90;99.90;;;;;;4971385;28;20046;-70
2022/01/02 11:54:28;;;;;;;12.50;4.03;;;11.90;99.90;;;;;;4972253;28;20051;-70
2022/01/02 11:57:20;;;;;;;12.68;3.72;;;11.80;99.90;;;;;;4972627;28;20517;-71
2022/01/02 11:59:46;;;;;;;11.88;3.40;;;11.80;99.90;;;;;;4955522;28;20502;-70
2022/01/02 12:02:25;;;;;;;14.77;4.55;;;11.80;99.90;;;;;;4956340;28;20043;-71
2022/01/02 12:07:34;;;;;;;19.42;8.63;;;11.90;99.90;;;;;;4972362;28;20095;-70
2022/01/02 12:10:44;;;;;;;11.32;3.85;;;11.90;99.90;;;;;;4972370;28;20380;-71
2022/01/02 12:13:18;;;;;;;14.68;3.85;;;12.00;99.90;;;;;;4972183;28;20043;-71
2022/01/02 12:15:44;;;;;;;11.55;3.05;;;12.40;99.90;;;;;;4971747;28;20054;-69
2022/01/02 12:18:26;;;;;;;13.05;3.92;;;12.90;99.90;;;;;;4972064;28;20034;-69
2022/01/02 12:21:08;;;;;;;12.90;3.38;;;13.30;99.90;;;;;;4982136;28;20063;-70
2022/01/02 12:23:33;;;;;;;15.98;4.40;;;13.60;99.90;;;;;;4950893;28;20054;-70
2022/01/02 12:26:16;;;;;;;18.10;3.53;;;13.50;99.90;;;;;;4952700;28;20051;-70
2022/01/02 12:28:43;;;;;;;13.02;3.78;;;13.20;99.90;;;;;;4952704;28;20126;-70
2022/01/02 12:32:02;;;;;;;12.02;4.45;;;12.90;99.90;;;;;;4952575;28;20058;-70
2022/01/02 12:34:30;;;;;;;16.52;4.75;;;12.70;99.90;;;;;;4970354;28;20117;-70
2022/01/02 12:36:58;;;;;;;11.40;4.00;;;12.50;99.90;;;;;;4955893;28;20057;-70
2022/01/02 12:39:33;;;;;;;15.80;3.42;;;12.40;99.90;;;;;;4955558;28;20098;-70
2022/01/02 12:42:03;;;;;;;14.38;3.53;;;12.40;99.90;;;;;;5004236;28;20050;-70
2022/01/02 12:44:33;;;;;;;13.02;4.07;;;12.50;99.90;;;;;;5004476;28;20055;-69
2022/01/02 12:47:01;;;;;;;17.58;4.07;;;12.40;99.90;;;;;;5004490;28;20041;-69
2022/01/02 12:49:31;;;;;;;12.68;4.00;;;12.40;99.90;;;;;;4970443;28;20047;-69
2022/01/02 12:52:04;;;;;;;16.67;4.47;;;12.40;99.90;;;;;;4969658;28;20108;-69
2022/01/02 12:54:32;;;;;;;13.15;4.38;;;12.50;99.90;;;;;;5004148;28;20111;-69
2022/01/02 12:57:12;;;;;;;20.65;5.93;;;12.60;99.90;;;;;;5004128;28;20077;-69